createdAt,value
2017-05-05T00:01:09.880Z,996.1
2017-05-05T00:02:19.915Z,996.11
2017-05-05T00:03:30.256Z,996.08
2017-05-05T00:04:40.299Z,996.08
2017-05-05T00:05:50.653Z,996.06
2017-05-05T00:07:00.685Z,996.07
2017-05-05T00:08:10.715Z,996.06
2017-05-05T00:09:21.059Z,996.06
2017-05-05T00:10:31.418Z,996.06
2017-05-05T00:11:41.750Z,996.02
2017-05-05T00:12:52.086Z,996.01
2017-05-05T00:14:02.441Z,996.02
2017-05-05T00:15:12.818Z,996.03
2017-05-05T00:16:23.148Z,996.04
2017-05-05T00:17:33.484Z,996.05
2017-05-05T00:18:43.831Z,996.06
2017-05-05T00:19:54.178Z,996.05
2017-05-05T00:21:04.212Z,996.06
2017-05-05T00:22:14.558Z,996.08
2017-05-05T00:23:24.623Z,996.11
2017-05-05T00:24:34.662Z,996.17
2017-05-05T00:25:45.028Z,996.16
2017-05-05T00:26:55.379Z,996.14
2017-05-05T00:28:05.727Z,996.12
2017-05-05T00:29:15.772Z,996.15
2017-05-05T00:30:25.800Z,996.15
2017-05-05T00:31:36.138Z,996.15
2017-05-05T00:32:46.473Z,996.18
2017-05-05T00:33:56.814Z,996.18
2017-05-05T00:35:07.168Z,996.13
2017-05-05T00:36:17.208Z,996.13
2017-05-05T00:37:27.562Z,996.14
2017-05-05T00:38:37.921Z,996.14
2017-05-05T00:39:47.950Z,996.15
2017-05-05T00:40:58.311Z,996.16
2017-05-05T00:42:08.655Z,996.19
2017-05-05T00:43:18.994Z,996.21
2017-05-05T00:44:29.367Z,996.16
2017-05-05T00:45:39.720Z,996.23
2017-05-05T00:46:50.058Z,996.21
2017-05-05T00:48:00.399Z,996.23
2017-05-05T00:49:10.780Z,996.22
2017-05-05T00:50:21.127Z,996.21
2017-05-05T00:51:30.854Z,996.27
2017-05-05T00:52:40.562Z,996.24
2017-05-05T00:53:50.905Z,996.22
2017-05-05T00:55:00.949Z,996.25
2017-05-05T00:56:11.300Z,996.26
2017-05-05T00:57:21.673Z,996.21
2017-05-05T00:58:32.055Z,996.23
2017-05-05T00:59:42.447Z,996.22
2017-05-05T01:00:52.813Z,996.18
2017-05-05T01:02:02.846Z,996.21
2017-05-05T01:03:13.193Z,996.27
2017-05-05T01:04:23.246Z,996.31
2017-05-05T01:05:33.602Z,996.31
2017-05-05T01:06:43.940Z,996.36
2017-05-05T01:07:54.290Z,996.35
2017-05-05T01:09:04.649Z,996.36
2017-05-05T01:10:14.978Z,996.4
2017-05-05T01:11:25.348Z,996.4
2017-05-05T01:12:35.062Z,996.47
2017-05-05T01:13:45.427Z,996.47
2017-05-05T01:14:55.766Z,996.47
2017-05-05T01:16:05.811Z,996.54
2017-05-05T01:17:16.375Z,996.51
2017-05-05T01:18:26.727Z,996.52
2017-05-05T01:19:37.080Z,996.52
2017-05-05T01:20:47.420Z,996.61
2017-05-05T01:21:57.765Z,996.58
2017-05-05T01:23:07.795Z,996.62
2017-05-05T01:24:18.155Z,996.59
2017-05-05T01:25:28.505Z,996.64
2017-05-05T01:26:38.541Z,996.62
2017-05-05T01:27:48.884Z,996.66
2017-05-05T01:28:59.236Z,996.65
2017-05-05T01:30:09.583Z,996.66
2017-05-05T01:31:19.287Z,996.66
2017-05-05T01:32:29.643Z,996.64
2017-05-05T01:33:39.983Z,996.61
2017-05-05T01:34:49.707Z,996.58
2017-05-05T01:36:00.056Z,996.57
2017-05-05T01:37:10.082Z,996.49
2017-05-05T01:38:20.427Z,996.45
2017-05-05T01:39:30.437Z,996.44
2017-05-05T01:40:40.806Z,996.37
2017-05-05T01:41:51.149Z,996.36
2017-05-05T01:43:01.185Z,996.39
2017-05-05T01:44:11.523Z,996.34
2017-05-05T01:45:21.894Z,996.29
2017-05-05T01:46:32.240Z,996.22
2017-05-05T01:47:42.608Z,996.22
2017-05-05T01:48:52.962Z,996.21
2017-05-05T01:50:03.311Z,996.17
2017-05-05T01:51:13.347Z,996.23
2017-05-05T01:52:23.684Z,996.24
2017-05-05T01:53:34.068Z,996.23
2017-05-05T01:54:44.426Z,996.26
2017-05-05T01:55:54.463Z,996.28
2017-05-05T01:57:04.816Z,996.26
2017-05-05T01:58:14.852Z,996.27
2017-05-05T01:59:24.567Z,996.3
2017-05-05T02:00:34.910Z,996.33
2017-05-05T02:01:45.291Z,996.3
2017-05-05T02:02:55.654Z,996.33
2017-05-05T02:04:05.997Z,996.34
2017-05-05T02:05:16.340Z,996.41
2017-05-05T02:06:26.690Z,996.39
2017-05-05T02:07:37.046Z,996.42
2017-05-05T02:08:47.401Z,996.46
2017-05-05T02:09:57.761Z,996.51
2017-05-05T02:11:08.102Z,996.57
2017-05-05T02:12:18.443Z,996.57
2017-05-05T02:13:28.785Z,996.58
2017-05-05T02:14:38.816Z,996.61
2017-05-05T02:15:49.150Z,996.63
2017-05-05T02:16:59.498Z,996.64
2017-05-05T02:18:09.844Z,996.64
2017-05-05T02:19:20.193Z,996.64
2017-05-05T02:20:30.221Z,996.69
2017-05-05T02:21:40.252Z,996.67
2017-05-05T02:22:50.305Z,996.62
2017-05-05T02:24:00.647Z,996.68
2017-05-05T02:25:10.989Z,996.68
2017-05-05T02:26:21.355Z,996.71
2017-05-05T02:27:31.716Z,996.71
2017-05-05T02:28:42.059Z,996.72
2017-05-05T02:29:52.091Z,996.77
2017-05-05T02:31:02.486Z,996.74
2017-05-05T02:32:12.501Z,996.73
2017-05-05T02:33:22.534Z,996.76
2017-05-05T02:34:32.872Z,996.76
2017-05-05T02:35:43.209Z,996.77
2017-05-05T02:36:53.225Z,996.79
2017-05-05T02:38:03.248Z,996.8
2017-05-05T02:39:13.598Z,996.83
2017-05-05T02:40:23.947Z,996.83
2017-05-05T02:41:34.272Z,996.83
2017-05-05T02:42:44.300Z,996.84
2017-05-05T02:43:54.657Z,996.81
2017-05-05T02:45:04.991Z,996.83
2017-05-05T02:46:15.025Z,996.79
2017-05-05T02:47:25.374Z,996.79
2017-05-05T02:48:35.712Z,996.86
2017-05-05T02:49:45.740Z,996.91
2017-05-05T02:50:56.079Z,996.92
2017-05-05T02:52:06.438Z,996.95
2017-05-05T02:53:16.828Z,996.96
2017-05-05T02:54:27.196Z,996.99
2017-05-05T02:55:36.926Z,996.99
2017-05-05T02:56:47.259Z,996.97
2017-05-05T02:57:57.296Z,997.04
2017-05-05T02:59:07.322Z,997.06
2017-05-05T03:00:17.665Z,997.05
2017-05-05T03:01:27.694Z,997.05
2017-05-05T03:33:15.913Z,997.03
2017-05-05T03:34:26.235Z,997.09
2017-05-05T03:35:36.258Z,997.15
2017-05-05T03:36:46.587Z,997.19
2017-05-05T03:37:56.923Z,997.18
2017-05-05T03:39:07.271Z,997.18
2017-05-05T03:40:17.611Z,997.22
2017-05-05T03:41:27.936Z,997.22
2017-05-05T03:42:37.654Z,997.21
2017-05-05T03:43:47.993Z,997.21
2017-05-05T03:44:58.373Z,997.2
2017-05-05T03:46:08.729Z,997.16
2017-05-05T03:47:19.077Z,997.13
2017-05-05T03:48:29.414Z,997.07
2017-05-05T03:49:39.142Z,997.03
2017-05-05T03:50:49.503Z,997.06
2017-05-05T03:51:59.844Z,996.99
2017-05-05T03:53:09.587Z,997.01
2017-05-05T03:54:19.926Z,996.99
2017-05-05T03:55:30.274Z,996.95
2017-05-05T03:56:40.631Z,996.98
2017-05-05T03:57:50.993Z,996.96
2017-05-05T03:59:01.341Z,996.95
2017-05-05T04:00:11.391Z,996.99
2017-05-05T04:01:21.424Z,997.03
2017-05-05T04:02:31.456Z,997.11
2017-05-05T04:03:41.802Z,997.07
2017-05-05T04:04:51.827Z,997.07
2017-05-05T04:06:01.901Z,997.1
2017-05-05T04:07:11.930Z,997.12
2017-05-05T04:08:22.282Z,997.17
2017-05-05T04:09:32.618Z,997.2
2017-05-05T04:10:42.959Z,997.22
2017-05-05T04:11:53.308Z,997.26
2017-05-05T04:13:03.646Z,997.28
2017-05-05T04:14:13.669Z,997.24
2017-05-05T04:15:24.022Z,997.25
2017-05-05T04:16:34.338Z,997.24
2017-05-05T04:17:44.678Z,997.23
2017-05-05T04:18:55.036Z,997.21
2017-05-05T04:20:05.375Z,997.22
2017-05-05T04:21:15.708Z,997.2
2017-05-05T04:22:26.056Z,997.22
2017-05-05T04:23:36.400Z,997.18
2017-05-05T04:24:46.741Z,997.21
2017-05-05T04:25:57.095Z,997.28
2017-05-05T04:27:07.116Z,997.29
2017-05-05T04:28:17.464Z,997.4
2017-05-05T04:29:27.499Z,997.45
2017-05-05T04:30:37.524Z,997.44
2017-05-05T04:31:47.863Z,997.47
2017-05-05T04:32:58.200Z,997.45
2017-05-05T04:34:08.563Z,997.51
2017-05-05T04:35:18.593Z,997.55
2017-05-05T04:36:28.950Z,997.58
2017-05-05T04:37:39.302Z,997.67
2017-05-05T04:38:49.648Z,997.68
2017-05-05T04:39:59.056Z,997.7
2017-05-05T04:41:09.394Z,997.72
2017-05-05T04:42:19.732Z,997.74
2017-05-05T04:43:30.071Z,997.7
2017-05-05T04:44:40.107Z,997.73
2017-05-05T04:45:50.434Z,997.73
2017-05-05T04:47:00.788Z,997.75
2017-05-05T04:48:10.512Z,997.75
2017-05-05T04:49:20.602Z,997.75
2017-05-05T04:50:30.951Z,997.77
2017-05-05T04:51:41.007Z,997.82
2017-05-05T04:52:51.379Z,997.81
2017-05-05T04:54:01.416Z,997.78
2017-05-05T04:55:11.438Z,997.81
2017-05-05T04:56:21.779Z,997.74
2017-05-05T04:57:32.113Z,997.78
2017-05-05T04:58:42.461Z,997.78
2017-05-05T04:59:52.507Z,997.8
2017-05-05T05:01:02.854Z,997.83
2017-05-05T05:02:13.193Z,997.81
2017-05-05T05:03:23.524Z,997.83
2017-05-05T05:04:33.863Z,997.8
2017-05-05T05:05:43.903Z,997.84
2017-05-05T05:06:54.267Z,997.84
2017-05-05T05:08:04.302Z,997.81
2017-05-05T05:09:14.640Z,997.82
2017-05-05T05:10:24.976Z,997.82
2017-05-05T05:11:35.331Z,997.82
2017-05-05T05:12:45.682Z,997.82
2017-05-05T05:13:56.031Z,997.84
2017-05-05T05:15:06.376Z,997.88
2017-05-05T05:16:16.707Z,997.86
2017-05-05T05:17:27.059Z,997.82
2017-05-05T05:18:37.090Z,997.78
2017-05-05T05:19:47.131Z,997.78
2017-05-05T05:20:57.490Z,997.81
2017-05-05T05:22:07.840Z,997.8
2017-05-05T05:23:18.182Z,997.84
2017-05-05T05:24:28.541Z,997.87
2017-05-05T05:25:38.582Z,997.94
2017-05-05T05:26:48.616Z,998.02
2017-05-05T05:27:58.956Z,998.06
2017-05-05T05:29:09.304Z,998.07
2017-05-05T05:30:19.335Z,998.02
2017-05-05T05:31:29.680Z,998.01
2017-05-05T05:32:40.004Z,997.96
2017-05-05T05:33:50.342Z,997.9
2017-05-05T05:35:00.690Z,997.89
2017-05-05T05:36:11.024Z,997.88
2017-05-05T05:37:21.368Z,997.88
2017-05-05T05:38:31.717Z,997.89
2017-05-05T05:39:42.059Z,997.91
2017-05-05T05:40:52.410Z,997.85
2017-05-05T05:42:02.760Z,997.96
2017-05-05T05:43:12.794Z,997.95
2017-05-05T05:44:23.144Z,997.95
2017-05-05T05:45:33.186Z,998.05
2017-05-05T05:46:43.528Z,997.98
2017-05-05T05:47:53.896Z,997.95
2017-05-05T05:49:03.940Z,997.9
2017-05-05T05:50:14.288Z,997.88
2017-05-05T05:51:24.638Z,997.89
2017-05-05T05:52:34.983Z,997.92
2017-05-05T05:53:45.358Z,997.93
2017-05-05T05:54:55.714Z,997.88
2017-05-05T05:56:06.045Z,997.87
2017-05-05T05:57:16.128Z,997.86
2017-05-05T05:58:26.469Z,997.83
2017-05-05T05:59:36.823Z,997.81
2017-05-05T06:00:46.840Z,997.8
2017-05-05T06:01:57.189Z,997.78
2017-05-05T06:03:07.536Z,997.79
2017-05-05T06:04:17.884Z,997.77
2017-05-05T06:05:27.972Z,997.77
2017-05-05T06:06:38.329Z,997.77
2017-05-05T06:07:48.684Z,997.78
2017-05-05T06:08:58.412Z,997.75
2017-05-05T06:10:08.449Z,997.77
2017-05-05T06:11:18.777Z,997.79
2017-05-05T06:12:29.131Z,997.79
2017-05-05T06:13:39.193Z,997.76
2017-05-05T06:14:49.233Z,997.75
2017-05-05T06:15:59.588Z,997.8
2017-05-05T06:17:09.627Z,997.78
2017-05-05T06:18:19.665Z,997.83
2017-05-05T06:19:30.002Z,997.82
2017-05-05T06:27:32.927Z,997.96
2017-05-05T06:28:42.661Z,998.01
2017-05-05T06:29:53.021Z,998.02
2017-05-05T06:31:03.370Z,998.04
2017-05-05T06:32:13.407Z,998.04
2017-05-05T06:33:23.124Z,998.04
2017-05-05T06:34:33.490Z,998.08
2017-05-05T06:35:43.832Z,998.12
2017-05-05T06:36:54.192Z,998.05
2017-05-05T06:38:04.540Z,998.06
2017-05-05T06:39:14.894Z,998.06
2017-05-05T06:40:25.257Z,998.07
2017-05-05T06:41:35.621Z,998.1
2017-05-05T06:42:45.973Z,998.1
2017-05-05T06:43:56.325Z,998.1
2017-05-05T06:45:06.361Z,998.08
2017-05-05T06:46:16.725Z,998.06
2017-05-05T06:47:27.072Z,998.01
2017-05-05T06:48:37.423Z,998.08
2017-05-05T06:49:47.473Z,998.02
2017-05-05T06:50:57.823Z,998.05
2017-05-05T06:52:08.176Z,998.01
2017-05-05T06:53:18.524Z,997.95
2017-05-05T06:54:28.560Z,997.99
2017-05-05T06:55:38.916Z,998.02
2017-05-05T06:56:48.950Z,998.02
2017-05-05T06:57:58.998Z,998.03
2017-05-05T06:59:09.050Z,998.02
2017-05-05T07:00:19.100Z,998.03
2017-05-05T07:01:29.138Z,998.02
2017-05-05T07:02:39.496Z,998.02
2017-05-05T07:03:49.533Z,998.02
2017-05-05T07:04:59.889Z,998.03
2017-05-05T07:06:09.919Z,998
2017-05-05T07:07:20.314Z,998.06
2017-05-05T07:08:30.344Z,998.1
2017-05-05T07:09:40.104Z,998.1
2017-05-05T07:10:50.464Z,998.17
2017-05-05T07:12:00.827Z,998.18
2017-05-05T07:13:10.867Z,998.21
2017-05-05T07:14:21.220Z,998.2
2017-05-05T07:15:31.563Z,998.22
2017-05-05T07:16:41.907Z,998.26
2017-05-05T07:17:51.638Z,998.24
2017-05-05T07:19:02.002Z,998.25
2017-05-05T07:20:12.367Z,998.28
2017-05-05T07:21:22.721Z,998.29
2017-05-05T07:22:33.059Z,998.37
2017-05-05T07:23:43.427Z,998.37
2017-05-05T07:24:53.809Z,998.43
2017-05-05T07:26:04.175Z,998.41
2017-05-05T07:27:14.522Z,998.47
2017-05-05T07:28:24.558Z,998.51
2017-05-05T07:29:34.608Z,998.5
2017-05-05T07:30:44.644Z,998.55
2017-05-05T07:31:54.390Z,998.53
2017-05-05T07:33:04.733Z,998.54
2017-05-05T07:34:15.116Z,998.55
2017-05-05T07:35:25.476Z,998.51
2017-05-05T07:36:35.515Z,998.56
2017-05-05T07:37:45.829Z,998.59
2017-05-05T07:38:55.876Z,998.59
2017-05-05T07:40:06.223Z,998.57
2017-05-05T07:41:16.602Z,998.6
2017-05-05T07:42:26.648Z,998.6
2017-05-05T07:43:36.996Z,998.68
2017-05-05T07:44:47.053Z,998.7
2017-05-05T07:45:57.416Z,998.71
2017-05-05T07:47:07.782Z,998.73
2017-05-05T07:48:17.877Z,998.69
2017-05-05T07:49:27.928Z,998.7
2017-05-05T07:50:38.300Z,998.66
2017-05-05T07:51:48.677Z,998.65
2017-05-05T07:52:59.045Z,998.69
2017-05-05T07:54:09.413Z,998.67
2017-05-05T07:55:19.336Z,998.64
2017-05-05T07:56:29.679Z,998.64
2017-05-05T07:57:39.409Z,998.71
2017-05-05T07:58:49.815Z,998.67
2017-05-05T08:00:00.201Z,998.7
2017-05-05T08:01:10.549Z,998.69
2017-05-05T08:02:20.903Z,998.75
2017-05-05T08:03:30.946Z,998.67
2017-05-05T08:04:40.673Z,998.72
2017-05-05T08:05:51.045Z,998.77
2017-05-05T08:07:01.420Z,998.74
2017-05-05T08:08:11.446Z,998.76
2017-05-05T08:09:21.794Z,998.72
2017-05-05T08:10:31.860Z,998.75
2017-05-05T08:11:42.214Z,998.77
2017-05-05T08:12:52.555Z,998.71
2017-05-05T08:14:02.939Z,998.74
2017-05-05T08:15:13.298Z,998.76
2017-05-05T08:16:23.329Z,998.78
2017-05-05T08:17:33.369Z,998.78
2017-05-05T08:18:43.726Z,998.78
2017-05-05T08:19:54.100Z,998.83
2017-05-05T08:21:04.467Z,998.83
2017-05-05T08:22:14.502Z,998.85
2017-05-05T08:23:24.837Z,998.85
2017-05-05T08:24:34.880Z,998.92
2017-05-05T08:25:45.234Z,998.92
2017-05-05T08:26:55.276Z,998.9
2017-05-05T08:28:05.633Z,998.96
2017-05-05T08:29:15.684Z,998.95
2017-05-05T08:30:26.040Z,998.97
2017-05-05T08:31:36.383Z,998.97
2017-05-05T08:32:46.741Z,999
2017-05-05T08:33:57.116Z,998.96
2017-05-05T08:35:07.468Z,999
2017-05-05T08:36:17.842Z,999
2017-05-05T08:37:28.191Z,999.02
2017-05-05T08:38:38.545Z,999
2017-05-05T08:39:48.895Z,998.99
2017-05-05T08:40:58.962Z,998.99
2017-05-05T08:42:09.316Z,998.96
2017-05-05T08:43:19.365Z,998.97
2017-05-05T08:44:29.721Z,998.9
2017-05-05T08:45:40.084Z,998.94
2017-05-05T08:46:50.449Z,998.93
2017-05-05T08:48:00.497Z,998.95
2017-05-05T08:49:10.223Z,998.96
2017-05-05T08:50:20.582Z,999.01
2017-05-05T08:51:30.962Z,999
2017-05-05T08:52:41.327Z,998.96
2017-05-05T08:53:51.386Z,999.01
2017-05-05T08:55:01.732Z,999
2017-05-05T08:56:11.455Z,999.02
2017-05-05T08:57:21.190Z,999
2017-05-05T08:58:31.245Z,999.01
2017-05-05T08:59:41.616Z,998.98
2017-05-05T09:00:51.989Z,998.98
2017-05-05T09:02:02.050Z,999.02
2017-05-05T09:03:12.400Z,998.99
2017-05-05T09:04:22.447Z,998.97
2017-05-05T09:05:32.786Z,998.98
2017-05-05T09:06:42.821Z,998.97
2017-05-05T09:07:52.536Z,999.03
2017-05-05T09:09:02.878Z,998.97
2017-05-05T09:10:12.921Z,998.99
2017-05-05T09:11:22.953Z,998.95
2017-05-05T09:12:33.313Z,999
2017-05-05T09:13:43.646Z,999.01
2017-05-05T09:14:54.003Z,999
2017-05-05T09:16:04.362Z,999.04
2017-05-05T09:17:14.734Z,999.1
2017-05-05T09:18:25.088Z,999.05
2017-05-05T09:19:35.122Z,999.08
2017-05-05T09:20:45.500Z,999.13
2017-05-05T09:21:55.842Z,999.11
2017-05-05T09:23:05.884Z,999.15
2017-05-05T09:24:16.221Z,999.17
2017-05-05T09:25:26.602Z,999.19
2017-05-05T09:26:36.975Z,999.14
2017-05-05T09:27:47.350Z,999.16
2017-05-05T09:28:57.719Z,999.2
2017-05-05T09:30:08.078Z,999.18
2017-05-05T09:31:18.436Z,999.19
2017-05-05T09:32:28.487Z,999.17
2017-05-05T09:33:38.543Z,999.2
2017-05-05T09:34:48.910Z,999.2
2017-05-05T09:35:58.959Z,999.23
2017-05-05T09:37:09.324Z,999.23
2017-05-05T09:38:19.351Z,999.22
2017-05-05T09:39:29.397Z,999.27
2017-05-05T09:40:39.749Z,999.28
2017-05-05T09:41:50.115Z,999.3
2017-05-05T09:43:00.473Z,999.28
2017-05-05T09:44:10.820Z,999.29
2017-05-05T09:45:21.157Z,999.27
2017-05-05T09:46:31.506Z,999.28
2017-05-05T09:47:41.546Z,999.29
2017-05-05T09:48:51.935Z,999.28
2017-05-05T09:50:02.013Z,999.26
2017-05-05T09:51:12.045Z,999.29
2017-05-05T09:52:22.088Z,999.35
2017-05-05T09:53:31.825Z,999.33
2017-05-05T09:54:42.175Z,999.33
2017-05-05T09:55:52.525Z,999.29
2017-05-05T09:57:02.876Z,999.27
2017-05-05T09:58:13.241Z,999.29
2017-05-05T09:59:23.596Z,999.3
2017-05-05T10:00:33.635Z,999.35
2017-05-05T10:01:43.686Z,999.31
2017-05-05T10:02:54.042Z,999.26
2017-05-05T10:04:04.415Z,999.27
2017-05-05T10:05:14.772Z,999.25
2017-05-05T10:06:25.134Z,999.23
2017-05-05T10:07:35.486Z,999.29
2017-05-05T10:08:45.855Z,999.27
2017-05-05T10:09:56.220Z,999.27
2017-05-05T10:11:06.283Z,999.26
2017-05-05T10:12:16.667Z,999.2
2017-05-05T10:13:27.042Z,999.2
2017-05-05T10:14:37.423Z,999.2
2017-05-05T10:15:47.476Z,999.19
2017-05-05T10:16:57.842Z,999.17
2017-05-05T10:18:08.196Z,999.13
2017-05-05T10:19:18.561Z,999.13
2017-05-05T10:20:28.616Z,999.17
2017-05-05T10:21:38.665Z,999.17
2017-05-05T10:22:49.030Z,999.19
2017-05-05T10:23:59.074Z,999.19
2017-05-05T10:25:09.430Z,999.17
2017-05-05T10:26:19.781Z,999.16
2017-05-05T10:27:30.146Z,999.14
2017-05-05T10:28:40.510Z,999.14
2017-05-05T10:29:50.560Z,999.14
2017-05-05T10:31:00.910Z,999.12
2017-05-05T10:32:11.271Z,999.15
2017-05-05T10:33:21.640Z,999.16
2017-05-05T10:34:31.995Z,999.15
2017-05-05T10:35:42.375Z,999.18
2017-05-05T10:36:52.117Z,999.09
2017-05-05T10:38:02.502Z,999.11
2017-05-05T10:39:12.551Z,999.09
2017-05-05T10:40:22.897Z,999.14
2017-05-05T10:41:33.254Z,999.09
2017-05-05T10:42:43.619Z,999.08
2017-05-05T10:43:53.981Z,999.04
2017-05-05T10:45:04.318Z,999
2017-05-05T10:46:14.676Z,999
2017-05-05T10:47:24.747Z,998.95
2017-05-05T10:48:35.130Z,998.91
2017-05-05T10:49:45.186Z,998.88
2017-05-05T10:50:55.546Z,998.87
2017-05-05T10:52:05.589Z,998.85
2017-05-05T10:53:15.872Z,998.84
2017-05-05T10:54:26.233Z,998.82
2017-05-05T10:55:36.594Z,998.8
2017-05-05T10:56:46.950Z,998.87
2017-05-05T10:57:57.312Z,998.85
2017-05-05T10:59:07.682Z,998.84
2017-05-05T11:00:17.717Z,998.82
2017-05-05T11:01:28.062Z,998.82
2017-05-05T11:02:37.809Z,998.85
2017-05-05T11:03:48.196Z,998.89
2017-05-05T11:04:57.636Z,998.91
2017-05-05T11:06:07.683Z,998.92
2017-05-05T11:07:17.744Z,998.86
2017-05-05T11:08:28.108Z,998.85
2017-05-05T11:09:38.491Z,998.87
2017-05-05T11:10:48.544Z,998.92
2017-05-05T11:11:58.905Z,998.84
2017-05-05T11:13:09.262Z,998.77
2017-05-05T11:14:19.606Z,998.79
2017-05-05T11:15:29.352Z,998.74
2017-05-05T11:16:39.406Z,998.7
2017-05-05T11:17:49.447Z,998.77
2017-05-05T11:18:59.790Z,998.72
2017-05-05T11:20:10.147Z,998.83
2017-05-05T11:21:19.891Z,998.73
2017-05-05T11:22:30.246Z,998.79
2017-05-05T11:23:40.595Z,998.83
2017-05-05T11:24:50.651Z,998.83
2017-05-05T11:26:01.013Z,998.87
2017-05-05T11:27:11.376Z,998.81
2017-05-05T11:28:21.720Z,998.87
2017-05-05T11:29:31.766Z,998.95
2017-05-05T11:30:41.216Z,998.91
2017-05-05T11:31:51.573Z,998.87
2017-05-05T11:33:01.922Z,998.86
2017-05-05T11:34:12.282Z,998.86
2017-05-05T11:35:22.661Z,998.93
2017-05-05T11:36:32.706Z,998.96
2017-05-05T11:37:42.778Z,998.94
2017-05-05T11:38:53.148Z,998.9
2017-05-05T11:40:03.212Z,998.89
2017-05-05T11:41:13.575Z,998.96
2017-05-05T11:42:23.927Z,998.93
2017-05-05T11:43:34.264Z,998.91
2017-05-05T11:44:44.629Z,998.87
2017-05-05T11:45:55.007Z,998.89
2017-05-05T11:47:05.360Z,998.9
2017-05-05T11:48:15.708Z,998.86
2017-05-05T11:49:26.099Z,998.88
2017-05-05T11:50:36.471Z,998.82
2017-05-05T11:51:46.822Z,998.81
2017-05-05T11:52:56.874Z,998.84
2017-05-05T11:54:06.911Z,998.87
2017-05-05T11:55:16.960Z,998.78
2017-05-05T11:56:27.311Z,998.84
2017-05-05T11:57:37.356Z,998.8
2017-05-05T11:58:47.384Z,998.69
2017-05-05T11:59:57.738Z,998.65
2017-05-05T12:01:07.472Z,998.78
2017-05-05T12:02:17.835Z,998.7
2017-05-05T12:03:27.855Z,998.7
2017-05-05T12:04:38.208Z,998.73
2017-05-05T12:05:48.573Z,998.77
2017-05-05T12:06:58.638Z,998.77
2017-05-05T12:08:09.020Z,998.75
2017-05-05T12:09:19.386Z,998.76
2017-05-05T12:10:29.414Z,998.79
2017-05-05T12:11:39.467Z,998.81
2017-05-05T12:12:49.833Z,998.87
2017-05-05T12:14:00.213Z,998.82
2017-05-05T12:15:10.262Z,998.81
2017-05-05T12:16:20.630Z,998.73
2017-05-05T12:17:30.660Z,998.73
2017-05-05T12:18:41.001Z,998.8
2017-05-05T12:19:51.367Z,998.75
2017-05-05T12:21:01.421Z,998.78
2017-05-05T12:22:11.787Z,998.76
2017-05-05T12:23:22.140Z,998.79
2017-05-05T12:24:32.496Z,998.82
2017-05-05T12:25:42.526Z,998.79
2017-05-05T12:26:52.919Z,998.79
2017-05-05T12:28:03.270Z,998.69
2017-05-05T12:29:13.636Z,998.72
2017-05-05T12:30:23.995Z,998.71
2017-05-05T12:31:34.360Z,998.71
2017-05-05T12:32:44.752Z,998.74
2017-05-05T12:33:55.116Z,998.68
2017-05-05T12:35:05.476Z,998.69
2017-05-05T12:36:15.843Z,998.66
2017-05-05T12:37:25.887Z,998.73
2017-05-05T12:38:36.246Z,998.71
2017-05-05T12:39:46.618Z,998.65
2017-05-05T12:40:56.998Z,998.63
2017-05-05T12:42:07.341Z,998.62
2017-05-05T12:43:17.678Z,998.63
2017-05-05T12:44:28.052Z,998.58
2017-05-05T12:45:38.407Z,998.53
2017-05-05T12:46:48.765Z,998.53
2017-05-05T12:47:58.801Z,998.56
2017-05-05T12:49:09.150Z,998.58
2017-05-05T12:50:19.223Z,998.55
2017-05-05T12:51:29.576Z,998.58
2017-05-05T12:52:40.171Z,998.56
2017-05-05T12:53:49.897Z,998.55
2017-05-05T12:55:00.269Z,998.61
2017-05-05T12:56:10.642Z,998.59
2017-05-05T12:57:20.374Z,998.59
2017-05-05T12:58:30.731Z,998.55
2017-05-05T12:59:41.073Z,998.58
2017-05-05T13:00:51.114Z,998.56
2017-05-05T13:02:01.459Z,998.5
2017-05-05T13:03:11.812Z,998.52
2017-05-05T13:04:22.169Z,998.48
2017-05-05T13:05:32.785Z,998.53
2017-05-05T13:06:42.843Z,998.52
2017-05-05T13:07:53.211Z,998.57
2017-05-05T13:09:03.576Z,998.49
2017-05-05T13:10:13.931Z,998.49
2017-05-05T13:11:24.314Z,998.46
2017-05-05T13:12:34.666Z,998.42
2017-05-05T13:13:45.054Z,998.43
2017-05-05T13:14:55.132Z,998.42
2017-05-05T13:16:05.494Z,998.39
2017-05-05T13:17:15.854Z,998.41
2017-05-05T13:18:26.211Z,998.39
2017-05-05T13:19:36.269Z,998.42
2017-05-05T13:20:46.317Z,998.39
2017-05-05T13:21:56.373Z,998.37
2017-05-05T13:23:06.717Z,998.38
2017-05-05T13:24:16.774Z,998.4
2017-05-05T13:25:27.134Z,998.36
2017-05-05T13:26:37.488Z,998.37
2017-05-05T13:27:47.543Z,998.39
2017-05-05T13:28:57.607Z,998.33
2017-05-05T13:30:07.977Z,998.32
2017-05-05T13:31:18.353Z,998.36
2017-05-05T13:32:28.711Z,998.32
2017-05-05T13:33:38.785Z,998.31
2017-05-05T13:34:49.149Z,998.3
2017-05-05T13:35:59.551Z,998.31
2017-05-05T13:37:09.920Z,998.31
2017-05-05T13:38:20.264Z,998.29
2017-05-05T13:39:30.621Z,998.33
2017-05-05T13:40:40.980Z,998.27
2017-05-05T13:41:51.348Z,998.31
2017-05-05T13:43:01.381Z,998.31
2017-05-05T13:44:11.722Z,998.35
2017-05-05T13:45:21.773Z,998.32
2017-05-05T13:46:32.139Z,998.33
2017-05-05T13:47:42.489Z,998.3
2017-05-05T13:48:52.522Z,998.32
2017-05-05T13:50:02.896Z,998.33
2017-05-05T13:51:13.246Z,998.33
2017-05-05T13:52:23.595Z,998.33
2017-05-05T13:53:33.987Z,998.31
2017-05-05T13:54:44.353Z,998.32
2017-05-05T13:55:54.718Z,998.33
2017-05-05T13:57:05.071Z,998.29
2017-05-05T13:58:15.138Z,998.29
2017-05-05T13:59:25.485Z,998.26
2017-05-05T14:00:35.852Z,998.29
2017-05-05T14:01:46.206Z,998.29
2017-05-05T14:02:56.280Z,998.33
2017-05-05T14:04:06.651Z,998.33
2017-05-05T14:05:17.016Z,998.36
2017-05-05T14:06:27.375Z,998.37
2017-05-05T14:07:37.722Z,998.37
2017-05-05T14:08:47.443Z,998.37
2017-05-05T14:09:57.801Z,998.33
2017-05-05T14:11:08.163Z,998.32
2017-05-05T14:12:18.520Z,998.3
2017-05-05T14:13:28.867Z,998.26
2017-05-05T14:14:39.222Z,998.28
2017-05-05T14:15:49.283Z,998.2
2017-05-05T14:16:59.625Z,998.26
2017-05-05T14:18:09.997Z,998.17
2017-05-05T14:19:20.363Z,998.15
2017-05-05T14:20:30.746Z,998.16
2017-05-05T14:21:40.792Z,998.12
2017-05-05T14:22:50.822Z,998.1
2017-05-05T14:24:01.419Z,998.07
2017-05-05T14:25:11.785Z,998.04
2017-05-05T14:26:22.144Z,998.02
2017-05-05T14:27:32.517Z,998.03
2017-05-05T14:28:42.896Z,998.03
2017-05-05T14:29:53.249Z,997.95
2017-05-05T14:31:03.602Z,997.96
2017-05-05T14:32:13.973Z,997.96
2017-05-05T14:33:24.339Z,997.95
2017-05-05T14:34:34.700Z,997.97
2017-05-05T14:35:45.053Z,997.95
2017-05-05T14:36:55.399Z,997.97
2017-05-05T14:38:05.441Z,997.96
2017-05-05T14:39:15.791Z,997.96
2017-05-05T14:40:26.139Z,997.95
2017-05-05T14:41:36.512Z,997.9
2017-05-05T14:42:46.551Z,997.93
2017-05-05T14:43:56.603Z,997.91
2017-05-05T14:45:06.966Z,997.88
2017-05-05T14:46:17.025Z,997.91
2017-05-05T14:47:27.079Z,997.94
2017-05-05T14:48:37.117Z,997.9
2017-05-05T14:49:47.472Z,997.9
2017-05-05T14:50:57.826Z,997.88
2017-05-05T14:52:08.178Z,997.88
2017-05-05T14:53:18.529Z,997.85
2017-05-05T14:54:28.555Z,997.91
2017-05-05T14:55:38.283Z,997.89
2017-05-05T14:56:48.338Z,997.87
2017-05-05T14:57:58.716Z,997.88
2017-05-05T14:59:09.073Z,997.84
2017-05-05T15:00:19.435Z,997.86
2017-05-05T15:01:29.803Z,997.87
2017-05-05T15:02:40.168Z,997.87
2017-05-05T15:03:50.531Z,997.87
2017-05-05T15:05:00.891Z,997.91
2017-05-05T15:06:10.983Z,997.86
2017-05-05T15:07:21.358Z,997.84
2017-05-05T15:08:31.387Z,997.84
2017-05-05T15:09:41.733Z,997.82
2017-05-05T15:10:52.094Z,997.9
2017-05-05T15:12:02.461Z,997.86
2017-05-05T15:13:12.827Z,997.88
2017-05-05T15:14:23.174Z,997.85
2017-05-05T15:15:33.531Z,997.92
2017-05-05T15:16:43.892Z,997.89
2017-05-05T15:17:54.255Z,997.9